sensor_id;sensor_type;location;lat;lon;timestamp;P1;durP1;ratioP1;P2;durP2;ratioP2
77040;SDS011;65974;42.664;23.264;2024-03-23T00:56:15;10.20;;;5.95;;
77040;SDS011;65974;42.664;23.264;2024-03-23T00:58:40;10.10;;;7.05;;
77040;SDS011;65974;42.664;23.264;2024-03-23T01:01:06;11.80;;;5.65;;
77040;SDS011;65974;42.664;23.264;2024-03-23T01:03:31;14.55;;;6.82;;
77040;SDS011;65974;42.664;23.264;2024-03-23T01:06:00;11.45;;;6.22;;
77040;SDS011;65974;42.664;23.264;2024-03-23T01:08:26;9.10;;;6.93;;
77040;SDS011;65974;42.664;23.264;2024-03-23T01:10:55;9.82;;;5.72;;
77040;SDS011;65974;42.664;23.264;2024-03-23T01:13:26;7.78;;;5.15;;
77040;SDS011;65974;42.664;23.264;2024-03-23T01:15:52;9.27;;;5.25;;
77040;SDS011;65974;42.664;23.264;2024-03-23T01:18:19;15.63;;;6.20;;
77040;SDS011;65974;42.664;23.264;2024-03-23T01:20:47;9.20;;;5.38;;
77040;SDS011;65974;42.664;23.264;2024-03-23T01:23:13;11.00;;;5.05;;
77040;SDS011;65974;42.664;23.264;2024-03-23T01:25:39;13.60;;;5.40;;
77040;SDS011;65974;42.664;23.264;2024-03-23T01:28:05;7.50;;;5.22;;
77040;SDS011;65974;42.664;23.264;2024-03-23T01:30:34;7.93;;;4.90;;
77040;SDS011;65974;42.664;23.264;2024-03-23T01:33:00;8.32;;;5.13;;
77040;SDS011;65974;42.664;23.264;2024-03-23T01:35:26;9.35;;;4.07;;
77040;SDS011;65974;42.664;23.264;2024-03-23T01:37:52;5.90;;;4.22;;
77040;SDS011;65974;42.664;23.264;2024-03-23T01:40:18;7.85;;;4.50;;
77040;SDS011;65974;42.664;23.264;2024-03-23T01:42:56;6.95;;;3.97;;
77040;SDS011;65974;42.664;23.264;2024-03-23T01:45:23;6.88;;;4.10;;
77040;SDS011;65974;42.664;23.264;2024-03-23T01:47:49;6.85;;;4.30;;
77040;SDS011;65974;42.664;23.264;2024-03-23T01:50:18;7.40;;;4.07;;
77040;SDS011;65974;42.664;23.264;2024-03-23T01:52:45;7.43;;;3.70;;
77040;SDS011;65974;42.664;23.264;2024-03-23T01:55:11;6.70;;;3.75;;
77040;SDS011;65974;42.664;23.264;2024-03-23T01:57:38;7.97;;;5.18;;
77040;SDS011;65974;42.664;23.264;2024-03-23T02:00:07;9.98;;;5.18;;
77040;SDS011;65974;42.664;23.264;2024-03-23T02:02:34;11.05;;;6.57;;
77040;SDS011;65974;42.664;23.264;2024-03-23T02:05:00;14.05;;;6.75;;
77040;SDS011;65974;42.664;23.264;2024-03-23T02:07:26;30.73;;;13.43;;
77040;SDS011;65974;42.664;23.264;2024-03-23T02:09:52;21.55;;;10.35;;
77040;SDS011;65974;42.664;23.264;2024-03-23T02:12:19;16.70;;;8.10;;
77040;SDS011;65974;42.664;23.264;2024-03-23T02:14:46;7.32;;;4.47;;
77040;SDS011;65974;42.664;23.264;2024-03-23T02:17:13;7.72;;;4.38;;
77040;SDS011;65974;42.664;23.264;2024-03-23T02:19:38;4.95;;;3.90;;
77040;SDS011;65974;42.664;23.264;2024-03-23T02:22:04;6.45;;;4.07;;
77040;SDS011;65974;42.664;23.264;2024-03-23T02:24:29;5.60;;;4.10;;
77040;SDS011;65974;42.664;23.264;2024-03-23T02:26:55;7.35;;;4.45;;
77040;SDS011;65974;42.664;23.264;2024-03-23T02:29:20;8.93;;;6.13;;
77040;SDS011;65974;42.664;23.264;2024-03-23T02:31:46;12.80;;;5.80;;
77040;SDS011;65974;42.664;23.264;2024-03-23T02:34:11;11.70;;;6.18;;
77040;SDS011;65974;42.664;23.264;2024-03-23T02:36:37;8.35;;;5.68;;
77040;SDS011;65974;42.664;23.264;2024-03-23T02:39:02;9.38;;;6.00;;
77040;SDS011;65974;42.664;23.264;2024-03-23T02:41:28;8.68;;;5.70;;
77040;SDS011;65974;42.664;23.264;2024-03-23T02:43:54;10.82;;;4.95;;
77040;SDS011;65974;42.664;23.264;2024-03-23T02:46:19;9.05;;;5.75;;
77040;SDS011;65974;42.664;23.264;2024-03-23T02:48:45;8.23;;;5.60;;
77040;SDS011;65974;42.664;23.264;2024-03-23T02:51:13;10.32;;;5.53;;
77040;SDS011;65974;42.664;23.264;2024-03-23T02:53:39;8.85;;;6.72;;
77040;SDS011;65974;42.664;23.264;2024-03-23T02:56:05;9.25;;;5.30;;
77040;SDS011;65974;42.664;23.264;2024-03-23T02:58:32;11.63;;;5.93;;
77040;SDS011;65974;42.664;23.264;2024-03-23T03:00:57;11.88;;;4.53;;
77040;SDS011;65974;42.664;23.264;2024-03-23T03:03:23;8.40;;;5.53;;
77040;SDS011;65974;42.664;23.264;2024-03-23T03:05:54;11.45;;;6.28;;
77040;SDS011;65974;42.664;23.264;2024-03-23T03:08:20;10.65;;;6.22;;
77040;SDS011;65974;42.664;23.264;2024-03-23T03:10:46;10.68;;;6.40;;
77040;SDS011;65974;42.664;23.264;2024-03-23T03:13:11;12.50;;;6.32;;
77040;SDS011;65974;42.664;23.264;2024-03-23T03:15:37;10.68;;;5.80;;
77040;SDS011;65974;42.664;23.264;2024-03-23T03:18:02;14.85;;;6.90;;
77040;SDS011;65974;42.664;23.264;2024-03-23T03:20:29;12.90;;;6.65;;
77040;SDS011;65974;42.664;23.264;2024-03-23T03:22:54;12.18;;;6.32;;
77040;SDS011;65974;42.664;23.264;2024-03-23T03:25:20;8.27;;;5.18;;
77040;SDS011;65974;42.664;23.264;2024-03-23T03:27:45;11.18;;;6.50;;
77040;SDS011;65974;42.664;23.264;2024-03-23T03:30:14;14.55;;;6.88;;
77040;SDS011;65974;42.664;23.264;2024-03-23T03:35:06;10.07;;;5.55;;
77040;SDS011;65974;42.664;23.264;2024-03-23T03:37:32;9.43;;;5.30;;
77040;SDS011;65974;42.664;23.264;2024-03-23T03:39:58;11.18;;;6.75;;
77040;SDS011;65974;42.664;23.264;2024-03-23T03:42:24;11.23;;;6.82;;
77040;SDS011;65974;42.664;23.264;2024-03-23T03:44:50;11.18;;;6.28;;
77040;SDS011;65974;42.664;23.264;2024-03-23T03:47:18;12.02;;;7.03;;
77040;SDS011;65974;42.664;23.264;2024-03-23T03:49:45;12.23;;;6.38;;
77040;SDS011;65974;42.664;23.264;2024-03-23T03:52:14;10.75;;;6.85;;
77040;SDS011;65974;42.664;23.264;2024-03-23T03:54:40;11.90;;;6.30;;
77040;SDS011;65974;42.664;23.264;2024-03-23T03:57:05;10.98;;;5.10;;
77040;SDS011;65974;42.664;23.264;2024-03-23T03:59:31;14.95;;;7.65;;
77040;SDS011;65974;42.664;23.264;2024-03-23T04:01:59;15.52;;;6.40;;
77040;SDS011;65974;42.664;23.264;2024-03-23T04:04:25;16.08;;;6.68;;
77040;SDS011;65974;42.664;23.264;2024-03-23T04:06:51;11.95;;;5.97;;
77040;SDS011;65974;42.664;23.264;2024-03-23T04:09:24;16.27;;;6.25;;
77040;SDS011;65974;42.664;23.264;2024-03-23T04:11:51;9.70;;;6.85;;
77040;SDS011;65974;42.664;23.264;2024-03-23T04:14:18;12.02;;;6.13;;
77040;SDS011;65974;42.664;23.264;2024-03-23T04:16:44;14.13;;;7.07;;
77040;SDS011;65974;42.664;23.264;2024-03-23T04:19:11;11.75;;;6.43;;
77040;SDS011;65974;42.664;23.264;2024-03-23T04:21:38;12.10;;;7.10;;
77040;SDS011;65974;42.664;23.264;2024-03-23T04:24:04;17.15;;;6.40;;
77040;SDS011;65974;42.664;23.264;2024-03-23T04:26:30;11.65;;;6.88;;
77040;SDS011;65974;42.664;23.264;2024-03-23T04:28:55;16.80;;;7.35;;
77040;SDS011;65974;42.664;23.264;2024-03-23T04:31:26;17.45;;;5.97;;
77040;SDS011;65974;42.664;23.264;2024-03-23T04:33:51;13.55;;;7.45;;
77040;SDS011;65974;42.664;23.264;2024-03-23T04:36:18;16.10;;;7.82;;
77040;SDS011;65974;42.664;23.264;2024-03-23T04:38:45;15.15;;;7.72;;
77040;SDS011;65974;42.664;23.264;2024-03-23T04:41:15;18.40;;;8.80;;
77040;SDS011;65974;42.664;23.264;2024-03-23T04:43:40;15.38;;;7.28;;
77040;SDS011;65974;42.664;23.264;2024-03-23T04:46:06;18.13;;;8.18;;
77040;SDS011;65974;42.664;23.264;2024-03-23T04:48:31;15.55;;;8.70;;
77040;SDS011;65974;42.664;23.264;2024-03-23T04:50:57;14.50;;;7.75;;
77040;SDS011;65974;42.664;23.264;2024-03-23T04:53:24;21.80;;;9.75;;
77040;SDS011;65974;42.664;23.264;2024-03-23T04:55:53;18.38;;;8.65;;
77040;SDS011;65974;42.664;23.264;2024-03-23T04:58:22;14.23;;;7.65;;
77040;SDS011;65974;42.664;23.264;2024-03-23T05:00:53;15.55;;;8.15;;
77040;SDS011;65974;42.664;23.264;2024-03-23T05:03:20;15.13;;;6.32;;
77040;SDS011;65974;42.664;23.264;2024-03-23T05:05:47;9.13;;;5.82;;
77040;SDS011;65974;42.664;23.264;2024-03-23T05:08:13;16.27;;;8.68;;
77040;SDS011;65974;42.664;23.264;2024-03-23T05:10:41;17.80;;;9.07;;
77040;SDS011;65974;42.664;23.264;2024-03-23T05:13:07;14.05;;;5.65;;
77040;SDS011;65974;42.664;23.264;2024-03-23T05:15:32;10.10;;;5.05;;
77040;SDS011;65974;42.664;23.264;2024-03-23T05:17:58;11.40;;;5.00;;
77040;SDS011;65974;42.664;23.264;2024-03-23T05:20:23;8.13;;;4.72;;
77040;SDS011;65974;42.664;23.264;2024-03-23T05:22:49;9.23;;;4.43;;
77040;SDS011;65974;42.664;23.264;2024-03-23T05:25:15;15.02;;;5.30;;
77040;SDS011;65974;42.664;23.264;2024-03-23T05:27:41;7.65;;;3.83;;
77040;SDS011;65974;42.664;23.264;2024-03-23T05:30:09;4.40;;;3.95;;
77040;SDS011;65974;42.664;23.264;2024-03-23T05:32:37;8.75;;;4.80;;
77040;SDS011;65974;42.664;23.264;2024-03-23T05:35:09;9.77;;;5.35;;
77040;SDS011;65974;42.664;23.264;2024-03-23T05:37:35;13.50;;;4.88;;
77040;SDS011;65974;42.664;23.264;2024-03-23T05:40:03;10.60;;;5.38;;
77040;SDS011;65974;42.664;23.264;2024-03-23T05:42:29;7.95;;;6.20;;
77040;SDS011;65974;42.664;23.264;2024-03-23T05:44:54;10.50;;;5.55;;
77040;SDS011;65974;42.664;23.264;2024-03-23T05:47:20;7.78;;;4.22;;
77040;SDS011;65974;42.664;23.264;2024-03-23T05:49:46;9.02;;;5.07;;
77040;SDS011;65974;42.664;23.264;2024-03-23T05:52:11;10.25;;;6.40;;
77040;SDS011;65974;42.664;23.264;2024-03-23T05:54:37;7.75;;;4.63;;
77040;SDS011;65974;42.664;23.264;2024-03-23T05:57:03;8.50;;;5.05;;
77040;SDS011;65974;42.664;23.264;2024-03-23T05:59:29;7.55;;;4.35;;
77040;SDS011;65974;42.664;23.264;2024-03-23T06:01:54;10.25;;;4.93;;
77040;SDS011;65974;42.664;23.264;2024-03-23T06:04:20;10.82;;;6.43;;
77040;SDS011;65974;42.664;23.264;2024-03-23T06:06:46;9.15;;;5.22;;
77040;SDS011;65974;42.664;23.264;2024-03-23T06:09:12;9.13;;;6.07;;
77040;SDS011;65974;42.664;23.264;2024-03-23T06:11:37;11.98;;;5.72;;
77040;SDS011;65974;42.664;23.264;2024-03-23T06:14:04;7.22;;;5.20;;
77040;SDS011;65974;42.664;23.264;2024-03-23T06:16:30;12.18;;;5.72;;
77040;SDS011;65974;42.664;23.264;2024-03-23T06:18:56;9.60;;;5.38;;
77040;SDS011;65974;42.664;23.264;2024-03-23T06:21:21;12.25;;;5.70;;
77040;SDS011;65974;42.664;23.264;2024-03-23T06:23:51;10.27;;;5.40;;
77040;SDS011;65974;42.664;23.264;2024-03-23T06:26:21;7.65;;;4.72;;
77040;SDS011;65974;42.664;23.264;2024-03-23T06:28:47;9.77;;;6.35;;
77040;SDS011;65974;42.664;23.264;2024-03-23T06:31:13;13.07;;;7.72;;
77040;SDS011;65974;42.664;23.264;2024-03-23T06:33:39;5.30;;;4.78;;
77040;SDS011;65974;42.664;23.264;2024-03-23T06:36:08;7.95;;;5.40;;
77040;SDS011;65974;42.664;23.264;2024-03-23T06:38:35;4.82;;;3.90;;
77040;SDS011;65974;42.664;23.264;2024-03-23T06:41:04;9.95;;;6.18;;
77040;SDS011;65974;42.664;23.264;2024-03-23T06:43:30;6.93;;;4.65;;
77040;SDS011;65974;42.664;23.264;2024-03-23T06:45:56;6.75;;;5.18;;
77040;SDS011;65974;42.664;23.264;2024-03-23T06:48:21;14.98;;;6.80;;
77040;SDS011;65974;42.664;23.264;2024-03-23T06:50:47;12.38;;;6.32;;
77040;SDS011;65974;42.664;23.264;2024-03-23T06:53:14;8.45;;;4.93;;
77040;SDS011;65974;42.664;23.264;2024-03-23T06:55:40;9.15;;;4.78;;
77040;SDS011;65974;42.664;23.264;2024-03-23T06:58:06;8.10;;;5.15;;
77040;SDS011;65974;42.664;23.264;2024-03-23T07:00:33;6.05;;;4.40;;
77040;SDS011;65974;42.664;23.264;2024-03-23T07:02:59;9.73;;;6.00;;
77040;SDS011;65974;42.664;23.264;2024-03-23T07:05:25;8.10;;;5.47;;
77040;SDS011;65974;42.664;23.264;2024-03-23T07:07:50;12.75;;;6.95;;
77040;SDS011;65974;42.664;23.264;2024-03-23T07:10:16;10.32;;;5.40;;
77040;SDS011;65974;42.664;23.264;2024-03-23T07:12:42;12.68;;;8.82;;
77040;SDS011;65974;42.664;23.264;2024-03-23T07:15:08;10.25;;;5.78;;
77040;SDS011;65974;42.664;23.264;2024-03-23T07:17:34;11.23;;;7.35;;
77040;SDS011;65974;42.664;23.264;2024-03-23T07:20:00;11.82;;;6.78;;
77040;SDS011;65974;42.664;23.264;2024-03-23T07:22:32;9.48;;;6.63;;
77040;SDS011;65974;42.664;23.264;2024-03-23T07:25:01;10.60;;;7.85;;
77040;SDS011;65974;42.664;23.264;2024-03-23T07:27:27;15.95;;;9.27;;
77040;SDS011;65974;42.664;23.264;2024-03-23T07:29:52;10.68;;;8.25;;
77040;SDS011;65974;42.664;23.264;2024-03-23T07:32:18;10.07;;;6.55;;
77040;SDS011;65974;42.664;23.264;2024-03-23T07:34:44;13.75;;;7.90;;
77040;SDS011;65974;42.664;23.264;2024-03-23T07:37:10;11.13;;;6.45;;
77040;SDS011;65974;42.664;23.264;2024-03-23T07:39:36;9.98;;;6.40;;
77040;SDS011;65974;42.664;23.264;2024-03-23T07:42:03;12.05;;;8.13;;
77040;SDS011;65974;42.664;23.264;2024-03-23T07:44:28;10.57;;;6.47;;
77040;SDS011;65974;42.664;23.264;2024-03-23T07:46:54;11.80;;;7.07;;
77040;SDS011;65974;42.664;23.264;2024-03-23T07:49:19;10.35;;;6.35;;
77040;SDS011;65974;42.664;23.264;2024-03-23T07:51:45;13.63;;;6.70;;
77040;SDS011;65974;42.664;23.264;2024-03-23T07:54:10;13.27;;;7.45;;
77040;SDS011;65974;42.664;23.264;2024-03-23T07:56:36;7.97;;;5.97;;
77040;SDS011;65974;42.664;23.264;2024-03-23T07:59:03;11.38;;;6.53;;
77040;SDS011;65974;42.664;23.264;2024-03-23T08:01:28;8.07;;;5.28;;
77040;SDS011;65974;42.664;23.264;2024-03-23T08:03:54;11.70;;;6.60;;
77040;SDS011;65974;42.664;23.264;2024-03-23T08:06:20;13.15;;;6.80;;
77040;SDS011;65974;42.664;23.264;2024-03-23T08:08:52;12.07;;;7.10;;
77040;SDS011;65974;42.664;23.264;2024-03-23T08:11:28;9.60;;;6.63;;
77040;SDS011;65974;42.664;23.264;2024-03-23T08:13:54;10.43;;;6.78;;
77040;SDS011;65974;42.664;23.264;2024-03-23T08:16:22;14.70;;;7.55;;
77040;SDS011;65974;42.664;23.264;2024-03-23T08:18:48;12.13;;;8.25;;
77040;SDS011;65974;42.664;23.264;2024-03-23T08:21:13;17.63;;;8.30;;
77040;SDS011;65974;42.664;23.264;2024-03-23T08:23:40;12.40;;;7.38;;
77040;SDS011;65974;42.664;23.264;2024-03-23T08:26:12;9.80;;;6.03;;
77040;SDS011;65974;42.664;23.264;2024-03-23T08:28:39;16.23;;;8.30;;
77040;SDS011;65974;42.664;23.264;2024-03-23T08:31:06;13.50;;;9.07;;
77040;SDS011;65974;42.664;23.264;2024-03-23T08:33:32;12.30;;;7.28;;
77040;SDS011;65974;42.664;23.264;2024-03-23T08:36:02;9.82;;;6.50;;
77040;SDS011;65974;42.664;23.264;2024-03-23T08:38:31;16.23;;;9.25;;
77040;SDS011;65974;42.664;23.264;2024-03-23T08:40:57;14.43;;;7.72;;
77040;SDS011;65974;42.664;23.264;2024-03-23T08:43:24;13.68;;;7.55;;
77040;SDS011;65974;42.664;23.264;2024-03-23T08:45:50;18.02;;;8.43;;
77040;SDS011;65974;42.664;23.264;2024-03-23T08:48:17;15.68;;;9.32;;
77040;SDS011;65974;42.664;23.264;2024-03-23T08:50:43;22.02;;;9.52;;
77040;SDS011;65974;42.664;23.264;2024-03-23T08:53:09;16.73;;;9.63;;
77040;SDS011;65974;42.664;23.264;2024-03-23T08:55:35;15.70;;;9.18;;
77040;SDS011;65974;42.664;23.264;2024-03-23T08:58:00;13.90;;;8.60;;
77040;SDS011;65974;42.664;23.264;2024-03-23T09:00:26;17.40;;;10.40;;
77040;SDS011;65974;42.664;23.264;2024-03-23T09:02:52;15.73;;;8.48;;
77040;SDS011;65974;42.664;23.264;2024-03-23T09:05:18;14.02;;;8.88;;
77040;SDS011;65974;42.664;23.264;2024-03-23T09:07:44;11.80;;;7.50;;
77040;SDS011;65974;42.664;23.264;2024-03-23T09:10:10;13.60;;;7.82;;
77040;SDS011;65974;42.664;23.264;2024-03-23T09:12:35;9.90;;;5.57;;
77040;SDS011;65974;42.664;23.264;2024-03-23T09:15:01;14.27;;;8.20;;
77040;SDS011;65974;42.664;23.264;2024-03-23T09:17:27;16.20;;;9.40;;
77040;SDS011;65974;42.664;23.264;2024-03-23T09:19:53;10.90;;;6.10;;
77040;SDS011;65974;42.664;23.264;2024-03-23T09:22:20;16.85;;;7.60;;
77040;SDS011;65974;42.664;23.264;2024-03-23T09:24:45;14.88;;;8.82;;
77040;SDS011;65974;42.664;23.264;2024-03-23T09:27:11;17.58;;;7.63;;
77040;SDS011;65974;42.664;23.264;2024-03-23T09:29:36;12.90;;;7.28;;
77040;SDS011;65974;42.664;23.264;2024-03-23T09:32:02;16.13;;;8.65;;
77040;SDS011;65974;42.664;23.264;2024-03-23T09:34:28;16.25;;;8.80;;
77040;SDS011;65974;42.664;23.264;2024-03-23T09:36:54;14.85;;;9.68;;
77040;SDS011;65974;42.664;23.264;2024-03-23T09:39:19;14.98;;;9.40;;
77040;SDS011;65974;42.664;23.264;2024-03-23T09:41:45;14.80;;;8.90;;
77040;SDS011;65974;42.664;23.264;2024-03-23T09:44:11;18.00;;;10.52;;
77040;SDS011;65974;42.664;23.264;2024-03-23T09:46:37;19.20;;;9.35;;
77040;SDS011;65974;42.664;23.264;2024-03-23T09:49:05;13.55;;;8.60;;
77040;SDS011;65974;42.664;23.264;2024-03-23T09:51:35;15.63;;;8.52;;
77040;SDS011;65974;42.664;23.264;2024-03-23T09:54:02;12.40;;;8.27;;
77040;SDS011;65974;42.664;23.264;2024-03-23T09:56:28;21.00;;;9.30;;
77040;SDS011;65974;42.664;23.264;2024-03-23T09:59:05;15.80;;;9.48;;
77040;SDS011;65974;42.664;23.264;2024-03-23T10:01:31;16.42;;;9.77;;
77040;SDS011;65974;42.664;23.264;2024-03-23T10:03:57;12.35;;;8.77;;
77040;SDS011;65974;42.664;23.264;2024-03-23T10:06:22;21.25;;;11.73;;
77040;SDS011;65974;42.664;23.264;2024-03-23T10:08:52;34.03;;;17.25;;
77040;SDS011;65974;42.664;23.264;2024-03-23T10:13:46;17.33;;;9.25;;
77040;SDS011;65974;42.664;23.264;2024-03-23T10:16:12;13.38;;;8.00;;
77040;SDS011;65974;42.664;23.264;2024-03-23T10:18:45;15.18;;;7.88;;
77040;SDS011;65974;42.664;23.264;2024-03-23T10:21:11;19.10;;;10.10;;
77040;SDS011;65974;42.664;23.264;2024-03-23T10:23:38;14.75;;;8.18;;
77040;SDS011;65974;42.664;23.264;2024-03-23T10:28:59;13.02;;;8.57;;
77040;SDS011;65974;42.664;23.264;2024-03-23T10:31:35;14.00;;;8.90;;
77040;SDS011;65974;42.664;23.264;2024-03-23T10:34:03;14.55;;;8.45;;
77040;SDS011;65974;42.664;23.264;2024-03-23T10:36:29;12.82;;;6.78;;
77040;SDS011;65974;42.664;23.264;2024-03-23T10:38:55;12.57;;;6.13;;
77040;SDS011;65974;42.664;23.264;2024-03-23T10:41:28;34.25;;;16.98;;
77040;SDS011;65974;42.664;23.264;2024-03-23T10:43:56;17.60;;;12.13;;
77040;SDS011;65974;42.664;23.264;2024-03-23T10:46:23;18.00;;;8.50;;
77040;SDS011;65974;42.664;23.264;2024-03-23T10:48:49;22.70;;;11.98;;
77040;SDS011;65974;42.664;23.264;2024-03-23T10:51:15;17.17;;;9.10;;
77040;SDS011;65974;42.664;23.264;2024-03-23T10:53:40;16.63;;;7.75;;
77040;SDS011;65974;42.664;23.264;2024-03-23T10:56:07;17.67;;;10.07;;
77040;SDS011;65974;42.664;23.264;2024-03-23T11:01:11;13.05;;;8.18;;
77040;SDS011;65974;42.664;23.264;2024-03-23T11:03:40;13.77;;;7.70;;
77040;SDS011;65974;42.664;23.264;2024-03-23T11:06:10;14.27;;;8.20;;
77040;SDS011;65974;42.664;23.264;2024-03-23T11:08:40;13.35;;;8.25;;
77040;SDS011;65974;42.664;23.264;2024-03-23T11:13:39;17.38;;;9.77;;
77040;SDS011;65974;42.664;23.264;2024-03-23T11:16:21;15.90;;;8.07;;
77040;SDS011;65974;42.664;23.264;2024-03-23T11:22:04;16.55;;;7.53;;
77040;SDS011;65974;42.664;23.264;2024-03-23T11:26:56;13.27;;;7.75;;
77040;SDS011;65974;42.664;23.264;2024-03-23T11:29:26;13.77;;;7.15;;
77040;SDS011;65974;42.664;23.264;2024-03-23T11:31:54;11.30;;;6.82;;
77040;SDS011;65974;42.664;23.264;2024-03-23T11:34:20;15.23;;;7.22;;
77040;SDS011;65974;42.664;23.264;2024-03-23T11:37:06;14.40;;;7.50;;
77040;SDS011;65974;42.664;23.264;2024-03-23T11:39:34;11.07;;;6.50;;
77040;SDS011;65974;42.664;23.264;2024-03-23T11:41:59;6.65;;;3.08;;
77040;SDS011;65974;42.664;23.264;2024-03-23T11:44:25;6.35;;;3.33;;
77040;SDS011;65974;42.664;23.264;2024-03-23T11:46:52;9.90;;;3.28;;
77040;SDS011;65974;42.664;23.264;2024-03-23T11:49:27;5.15;;;3.10;;
77040;SDS011;65974;42.664;23.264;2024-03-23T11:51:55;5.93;;;3.85;;
77040;SDS011;65974;42.664;23.264;2024-03-23T11:54:21;8.60;;;3.28;;
77040;SDS011;65974;42.664;23.264;2024-03-23T11:56:58;3.95;;;2.25;;
77040;SDS011;65974;42.664;23.264;2024-03-23T11:59:35;6.35;;;3.10;;
77040;SDS011;65974;42.664;23.264;2024-03-23T12:02:09;2.38;;;1.70;;
77040;SDS011;65974;42.664;23.264;2024-03-23T12:04:42;4.85;;;2.75;;
77040;SDS011;65974;42.664;23.264;2024-03-23T12:07:14;3.75;;;1.70;;
77040;SDS011;65974;42.664;23.264;2024-03-23T12:09:42;21.50;;;9.55;;
77040;SDS011;65974;42.664;23.264;2024-03-23T12:12:15;14.55;;;7.03;;
77040;SDS011;65974;42.664;23.264;2024-03-23T12:17:30;6.35;;;3.00;;
77040;SDS011;65974;42.664;23.264;2024-03-23T12:19:56;13.50;;;6.35;;
77040;SDS011;65974;42.664;23.264;2024-03-23T12:22:27;7.53;;;3.65;;
77040;SDS011;65974;42.664;23.264;2024-03-23T12:24:54;11.43;;;5.53;;
77040;SDS011;65974;42.664;23.264;2024-03-23T12:27:20;7.47;;;3.83;;
77040;SDS011;65974;42.664;23.264;2024-03-23T12:29:45;10.00;;;5.63;;
77040;SDS011;65974;42.664;23.264;2024-03-23T12:32:14;13.02;;;9.20;;
77040;SDS011;65974;42.664;23.264;2024-03-23T12:34:44;7.20;;;2.83;;
77040;SDS011;65974;42.664;23.264;2024-03-23T12:37:09;7.30;;;3.75;;
77040;SDS011;65974;42.664;23.264;2024-03-23T12:39:35;9.80;;;4.57;;
77040;SDS011;65974;42.664;23.264;2024-03-23T12:42:01;5.88;;;3.55;;
77040;SDS011;65974;42.664;23.264;2024-03-23T12:44:30;4.60;;;2.28;;
77040;SDS011;65974;42.664;23.264;2024-03-23T12:46:56;6.97;;;3.88;;
77040;SDS011;65974;42.664;23.264;2024-03-23T12:49:23;4.35;;;2.15;;
77040;SDS011;65974;42.664;23.264;2024-03-23T12:51:55;3.85;;;2.47;;
77040;SDS011;65974;42.664;23.264;2024-03-23T12:54:21;5.82;;;1.85;;
77040;SDS011;65974;42.664;23.264;2024-03-23T12:56:47;3.40;;;1.90;;
77040;SDS011;65974;42.664;23.264;2024-03-23T12:59:15;4.75;;;3.55;;
77040;SDS011;65974;42.664;23.264;2024-03-23T13:01:41;4.20;;;2.58;;
77040;SDS011;65974;42.664;23.264;2024-03-23T13:04:08;5.35;;;2.72;;
77040;SDS011;65974;42.664;23.264;2024-03-23T13:06:34;4.15;;;2.67;;
77040;SDS011;65974;42.664;23.264;2024-03-23T13:09:01;2.53;;;1.63;;
77040;SDS011;65974;42.664;23.264;2024-03-23T13:11:27;5.20;;;2.95;;
77040;SDS011;65974;42.664;23.264;2024-03-23T13:13:53;22.15;;;7.93;;
77040;SDS011;65974;42.664;23.264;2024-03-23T13:16:20;3.83;;;2.03;;
77040;SDS011;65974;42.664;23.264;2024-03-23T13:18:45;5.30;;;1.92;;
77040;SDS011;65974;42.664;23.264;2024-03-23T13:21:11;5.97;;;2.45;;
77040;SDS011;65974;42.664;23.264;2024-03-23T13:23:36;5.10;;;2.33;;
77040;SDS011;65974;42.664;23.264;2024-03-23T13:26:07;4.65;;;2.30;;
77040;SDS011;65974;42.664;23.264;2024-03-23T13:28:32;3.15;;;2.20;;
77040;SDS011;65974;42.664;23.264;2024-03-23T13:30:58;3.42;;;2.45;;
77040;SDS011;65974;42.664;23.264;2024-03-23T13:33:28;2.83;;;2.00;;
77040;SDS011;65974;42.664;23.264;2024-03-23T13:35:55;4.68;;;2.50;;
77040;SDS011;65974;42.664;23.264;2024-03-23T13:38:21;3.58;;;1.77;;
77040;SDS011;65974;42.664;23.264;2024-03-23T13:40:51;9.50;;;3.63;;
77040;SDS011;65974;42.664;23.264;2024-03-23T13:43:22;3.10;;;1.92;;
77040;SDS011;65974;42.664;23.264;2024-03-23T13:45:49;6.75;;;2.03;;
77040;SDS011;65974;42.664;23.264;2024-03-23T13:48:19;3.55;;;2.00;;
77040;SDS011;65974;42.664;23.264;2024-03-23T13:50:47;2.95;;;1.30;;
77040;SDS011;65974;42.664;23.264;2024-03-23T13:53:13;5.00;;;2.13;;
77040;SDS011;65974;42.664;23.264;2024-03-23T13:55:46;6.53;;;2.17;;
77040;SDS011;65974;42.664;23.264;2024-03-23T13:58:13;4.30;;;2.67;;
77040;SDS011;65974;42.664;23.264;2024-03-23T14:00:39;3.88;;;2.45;;
77040;SDS011;65974;42.664;23.264;2024-03-23T14:03:05;5.95;;;3.10;;
77040;SDS011;65974;42.664;23.264;2024-03-23T14:05:31;4.28;;;2.47;;
77040;SDS011;65974;42.664;23.264;2024-03-23T14:07:58;3.20;;;2.05;;
77040;SDS011;65974;42.664;23.264;2024-03-23T14:10:26;3.97;;;2.35;;
77040;SDS011;65974;42.664;23.264;2024-03-23T14:12:52;3.58;;;2.00;;
77040;SDS011;65974;42.664;23.264;2024-03-23T14:15:18;3.25;;;2.05;;
77040;SDS011;65974;42.664;23.264;2024-03-23T14:17:44;9.05;;;2.47;;
77040;SDS011;65974;42.664;23.264;2024-03-23T14:20:11;6.05;;;2.60;;
77040;SDS011;65974;42.664;23.264;2024-03-23T14:22:38;4.15;;;2.60;;
77040;SDS011;65974;42.664;23.264;2024-03-23T14:25:06;7.13;;;2.95;;
77040;SDS011;65974;42.664;23.264;2024-03-23T14:27:32;4.10;;;3.05;;
77040;SDS011;65974;42.664;23.264;2024-03-23T14:29:58;4.72;;;3.03;;
77040;SDS011;65974;42.664;23.264;2024-03-23T14:32:23;4.32;;;2.17;;
77040;SDS011;65974;42.664;23.264;2024-03-23T14:34:50;5.60;;;2.58;;
77040;SDS011;65974;42.664;23.264;2024-03-23T14:37:19;9.13;;;4.35;;
77040;SDS011;65974;42.664;23.264;2024-03-23T14:39:44;77.57;;;24.45;;
77040;SDS011;65974;42.664;23.264;2024-03-23T14:42:10;6.70;;;3.03;;
77040;SDS011;65974;42.664;23.264;2024-03-23T14:44:36;9.57;;;3.72;;
77040;SDS011;65974;42.664;23.264;2024-03-23T14:47:01;5.85;;;3.35;;
77040;SDS011;65974;42.664;23.264;2024-03-23T14:49:27;5.63;;;3.45;;
77040;SDS011;65974;42.664;23.264;2024-03-23T14:51:53;6.97;;;3.15;;
77040;SDS011;65974;42.664;23.264;2024-03-23T14:54:18;7.80;;;4.82;;
77040;SDS011;65974;42.664;23.264;2024-03-23T14:56:44;4.85;;;3.70;;
77040;SDS011;65974;42.664;23.264;2024-03-23T14:59:09;17.50;;;7.10;;
77040;SDS011;65974;42.664;23.264;2024-03-23T15:01:35;16.70;;;10.75;;
77040;SDS011;65974;42.664;23.264;2024-03-23T15:04:00;6.65;;;3.67;;
77040;SDS011;65974;42.664;23.264;2024-03-23T15:06:26;8.27;;;4.55;;
77040;SDS011;65974;42.664;23.264;2024-03-23T15:08:52;3.92;;;2.10;;
77040;SDS011;65974;42.664;23.264;2024-03-23T15:11:17;6.45;;;3.45;;
77040;SDS011;65974;42.664;23.264;2024-03-23T15:13:45;7.63;;;4.22;;
77040;SDS011;65974;42.664;23.264;2024-03-23T15:16:16;5.03;;;2.97;;
77040;SDS011;65974;42.664;23.264;2024-03-23T15:18:45;6.20;;;3.20;;
77040;SDS011;65974;42.664;23.264;2024-03-23T15:21:11;10.65;;;4.03;;
77040;SDS011;65974;42.664;23.264;2024-03-23T15:23:37;6.82;;;2.67;;
77040;SDS011;65974;42.664;23.264;2024-03-23T15:26:03;4.13;;;2.38;;
77040;SDS011;65974;42.664;23.264;2024-03-23T15:28:31;7.72;;;3.90;;
77040;SDS011;65974;42.664;23.264;2024-03-23T15:31:06;6.40;;;3.33;;
77040;SDS011;65974;42.664;23.264;2024-03-23T15:33:32;6.78;;;3.65;;
77040;SDS011;65974;42.664;23.264;2024-03-23T15:36:04;6.05;;;2.80;;
77040;SDS011;65974;42.664;23.264;2024-03-23T15:38:31;9.23;;;4.60;;
77040;SDS011;65974;42.664;23.264;2024-03-23T15:40:57;10.93;;;4.50;;